Time;durP1;ratioP1;P1;durP2;ratioP2;P2;SDS_P1;SDS_P2;PMS_P1;PMS_P2;Temp;Humidity;BMP_temperature;BMP_pressure;BME280_temperature;BME280_humidity;BME280_pressure;Samples;Min_cycle;Max_cycle;Signal;HPM_P1;HPM_P2
2023/11/18 00:01:48;;;;;;;27.20;17.38;;;7.60;1.00;;;;;;4908241;29;20253;-85
2023/11/18 00:04:17;;;;;;;26.60;17.13;;;7.60;1.00;;;;;;4909407;29;20183;-84
2023/11/18 00:06:46;;;;;;;26.23;16.60;;;7.60;1.00;;;;;;4920932;29;20190;-84
2023/11/18 00:09:15;;;;;;;31.20;16.60;;;7.60;1.00;;;;;;4921822;29;20206;-83
2023/11/18 00:11:42;;;;;;;26.20;16.27;;;7.60;1.00;;;;;;4914144;29;20183;-84
2023/11/18 00:14:07;;;;;;;27.13;16.42;;;7.60;1.00;;;;;;4915594;29;20208;-84
2023/11/18 00:16:34;;;;;;;27.87;17.30;;;7.60;1.00;;;;;;4911611;29;20203;-84
2023/11/18 00:19:00;;;;;;;35.45;18.02;;;7.60;1.00;;;;;;4935224;29;20255;-84
2023/11/18 00:21:25;;;;;;;32.22;16.95;;;7.60;1.00;;;;;;4914414;29;20187;-84
2023/11/18 00:23:51;;;;;;;26.53;16.73;;;7.60;1.00;;;;;;4914171;29;20194;-85
2023/11/18 00:26:16;;;;;;;33.80;17.63;;;7.60;1.00;;;;;;4910097;29;20198;-85
2023/11/18 00:28:42;;;;;;;28.40;16.03;;;7.60;1.00;;;;;;4915587;29;20238;-84
2023/11/18 00:31:07;;;;;;;23.53;16.23;;;7.50;1.00;;;;;;4912625;29;20218;-85
2023/11/18 00:33:33;;;;;;;25.93;16.90;;;7.50;1.00;;;;;;4912101;29;20736;-84
2023/11/18 00:36:00;;;;;;;26.23;16.13;;;7.40;1.00;;;;;;4921402;29;20278;-84
2023/11/18 00:38:26;;;;;;;24.60;15.35;;;7.40;1.00;;;;;;4915389;29;20200;-86
2023/11/18 00:40:52;;;;;;;28.53;17.20;;;7.40;1.00;;;;;;4916610;29;20210;-84
2023/11/18 00:43:17;;;;;;;24.33;16.67;;;7.40;1.00;;;;;;4911427;29;20510;-84
2023/11/18 00:45:43;;;;;;;24.80;17.60;;;7.30;1.00;;;;;;4918027;29;20688;-84
2023/11/18 00:48:09;;;;;;;27.73;16.83;;;7.30;1.00;;;;;;4921264;29;20182;-84
2023/11/18 00:50:35;;;;;;;26.53;17.63;;;7.30;1.00;;;;;;4923713;29;20206;-85
2023/11/18 00:53:01;;;;;;;24.63;16.60;;;7.30;1.00;;;;;;4916174;29;20450;-83
2023/11/18 00:55:27;;;;;;;32.90;17.43;;;7.20;1.00;;;;;;4909805;29;20556;-83
2023/11/18 00:57:52;;;;;;;27.10;17.40;;;7.20;1.00;;;;;;4917626;29;20733;-83
2023/11/18 01:00:21;;;;;;;26.53;17.90;;;7.10;1.00;;;;;;4920645;29;20209;-84
2023/11/18 01:02:49;;;;;;;27.65;16.98;;;7.00;1.00;;;;;;4911193;29;20449;-84
2023/11/18 01:05:15;;;;;;;27.75;17.23;;;7.00;1.00;;;;;;4921952;29;20235;-84
2023/11/18 01:07:41;;;;;;;34.38;18.98;;;6.90;1.00;;;;;;4915488;29;20615;-83
2023/11/18 01:10:08;;;;;;;25.05;16.63;;;6.80;1.00;;;;;;4916674;29;20206;-83
2023/11/18 01:12:34;;;;;;;27.58;18.42;;;6.80;1.00;;;;;;4921291;29;20262;-85
2023/11/18 01:15:00;;;;;;;31.92;18.38;;;6.80;1.00;;;;;;4915668;29;20183;-82
2023/11/18 01:17:26;;;;;;;31.13;16.23;;;6.80;1.00;;;;;;4917233;29;20678;-85
2023/11/18 01:19:51;;;;;;;25.10;16.77;;;6.70;1.00;;;;;;4915868;29;20295;-83
2023/11/18 01:22:18;;;;;;;31.30;17.60;;;6.60;1.00;;;;;;4913649;29;20179;-85
2023/11/18 01:24:44;;;;;;;29.67;17.08;;;6.60;1.00;;;;;;4906649;29;23237;-83
2023/11/18 01:27:10;;;;;;;36.03;18.73;;;6.60;1.00;;;;;;4920021;29;20265;-85
2023/11/18 01:29:37;;;;;;;32.58;18.05;;;6.60;1.00;;;;;;4913403;29;20539;-83
2023/11/18 01:32:09;;;;;;;29.02;17.45;;;6.50;1.00;;;;;;4914821;29;20200;-83
2023/11/18 01:34:39;;;;;;;27.05;18.38;;;6.30;1.00;;;;;;4915326;29;20210;-84
2023/11/18 01:37:07;;;;;;;28.83;17.98;;;6.30;1.00;;;;;;4925928;29;20721;-83
2023/11/18 01:39:36;;;;;;;29.35;19.05;;;6.30;1.00;;;;;;4921760;29;20209;-83
2023/11/18 01:42:02;;;;;;;29.63;19.98;;;6.20;1.00;;;;;;4916332;29;20183;-84
2023/11/18 01:44:29;;;;;;;26.13;16.30;;;6.10;1.00;;;;;;4917210;29;20306;-83
2023/11/18 01:46:56;;;;;;;27.00;17.77;;;6.10;1.00;;;;;;4914041;29;20287;-83
2023/11/18 01:49:22;;;;;;;27.00;17.10;;;6.10;1.00;;;;;;4916009;29;20218;-83
2023/11/18 01:51:53;;;;;;;21.75;15.70;;;6.00;1.00;;;;;;4916480;29;20673;-84
2023/11/18 01:54:19;;;;;;;29.55;17.83;;;6.00;1.00;;;;;;4908735;29;20221;-83
2023/11/18 01:56:49;;;;;;;26.13;17.50;;;6.00;1.00;;;;;;4917207;29;20579;-83
2023/11/18 01:59:18;;;;;;;25.20;17.40;;;6.00;1.00;;;;;;4917357;29;20825;-83
2023/11/18 02:01:49;;;;;;;29.38;18.73;;;6.00;1.00;;;;;;4916024;29;20278;-83
2023/11/18 02:04:16;;;;;;;27.80;16.33;;;5.90;1.00;;;;;;4913861;29;20195;-84
2023/11/18 02:06:44;;;;;;;30.83;17.98;;;5.90;1.00;;;;;;4912924;29;20187;-83
2023/11/18 02:09:10;;;;;;;28.13;18.00;;;5.90;1.00;;;;;;4914597;29;21619;-83
2023/11/18 02:11:42;;;;;;;29.05;17.85;;;5.90;1.00;;;;;;4906047;29;20192;-83
2023/11/18 02:14:13;;;;;;;26.92;17.42;;;5.90;1.00;;;;;;4916207;29;20183;-82
2023/11/18 02:16:41;;;;;;;26.00;17.08;;;5.90;1.00;;;;;;4913619;29;20759;-83
2023/11/18 02:19:19;;;;;;;27.20;16.85;;;6.00;1.00;;;;;;4918180;29;20185;-83
2023/11/18 02:21:46;;;;;;;26.10;17.52;;;5.90;1.00;;;;;;4912014;29;20206;-83
2023/11/18 02:24:24;;;;;;;24.95;16.95;;;6.00;1.00;;;;;;4925752;29;20203;-83
2023/11/18 02:26:50;;;;;;;25.77;16.80;;;6.00;1.00;;;;;;4915096;29;21053;-83
2023/11/18 02:29:15;;;;;;;25.13;17.23;;;6.00;1.00;;;;;;4909732;29;20211;-85
2023/11/18 02:31:43;;;;;;;28.40;17.37;;;6.00;1.00;;;;;;4921088;29;20202;-82
2023/11/18 02:34:16;;;;;;;28.13;18.20;;;6.00;1.00;;;;;;4912703;29;20797;-84
2023/11/18 02:36:46;;;;;;;25.60;17.58;;;6.00;1.00;;;;;;4917378;29;20215;-85
2023/11/18 02:39:28;;;;;;;28.05;17.60;;;5.90;1.00;;;;;;4916178;29;20229;-85
2023/11/18 02:41:56;;;;;;;31.40;18.58;;;5.90;1.00;;;;;;4919617;29;20230;-83
2023/11/18 02:44:23;;;;;;;30.05;20.45;;;5.80;1.00;;;;;;4923083;29;20193;-82
2023/11/18 02:46:48;;;;;;;32.22;20.15;;;5.80;1.00;;;;;;4915363;29;20250;-85
2023/11/18 02:49:15;;;;;;;31.20;18.30;;;5.80;1.00;;;;;;4919711;29;20215;-83
2023/11/18 02:51:40;;;;;;;28.90;17.33;;;5.80;1.00;;;;;;4917418;29;20210;-85
2023/11/18 02:54:10;;;;;;;29.60;17.70;;;5.90;1.00;;;;;;4915500;29;20194;-84
2023/11/18 02:56:39;;;;;;;28.63;16.33;;;6.00;1.00;;;;;;4914293;29;20591;-84
2023/11/18 02:59:05;;;;;;;25.33;16.73;;;6.00;1.00;;;;;;4914817;29;20214;-84
2023/11/18 03:01:31;;;;;;;25.97;16.93;;;5.90;1.00;;;;;;4921530;29;20178;-85
2023/11/18 03:03:58;;;;;;;30.50;18.00;;;5.90;1.00;;;;;;4917408;29;21024;-86
2023/11/18 03:06:23;;;;;;;27.80;18.73;;;5.80;1.00;;;;;;4921300;29;20189;-85
2023/11/18 03:08:49;;;;;;;29.00;17.77;;;5.80;1.00;;;;;;4913882;29;20183;-84
2023/11/18 03:11:14;;;;;;;32.80;19.70;;;5.80;1.00;;;;;;4909629;29;20685;-86
2023/11/18 03:13:40;;;;;;;28.33;17.80;;;5.80;1.00;;;;;;4922142;29;20281;-85
2023/11/18 03:16:11;;;;;;;28.83;16.87;;;5.90;1.00;;;;;;4918886;29;20297;-83
2023/11/18 03:18:39;;;;;;;31.15;18.48;;;5.90;1.00;;;;;;4910437;29;20662;-85
2023/11/18 03:21:06;;;;;;;26.17;17.52;;;5.80;1.00;;;;;;4909110;29;20211;-84
2023/11/18 03:23:32;;;;;;;26.75;17.52;;;5.80;1.00;;;;;;4921211;29;20182;-84
2023/11/18 03:25:58;;;;;;;25.93;16.53;;;5.90;1.00;;;;;;4918121;29;20190;-84
2023/11/18 03:28:23;;;;;;;28.27;16.87;;;5.90;1.00;;;;;;4907672;29;20447;-84
2023/11/18 03:30:49;;;;;;;31.77;18.90;;;5.80;1.00;;;;;;4910762;29;20218;-87
2023/11/18 03:33:14;;;;;;;29.47;17.50;;;5.80;1.00;;;;;;4915390;29;20285;-86
2023/11/18 03:35:40;;;;;;;27.30;18.90;;;5.80;1.00;;;;;;4916112;29;20206;-85
2023/11/18 03:38:05;;;;;;;28.00;18.20;;;5.70;1.00;;;;;;4914116;29;20191;-84
2023/11/18 03:40:31;;;;;;;32.23;20.30;;;5.60;1.00;;;;;;4915307;29;20195;-86
2023/11/18 03:42:58;;;;;;;41.20;20.80;;;5.60;1.00;;;;;;4926043;29;20900;-86
2023/11/18 03:45:24;;;;;;;33.53;22.42;;;5.60;1.00;;;;;;4912321;29;20901;-85
2023/11/18 03:47:50;;;;;;;32.70;19.57;;;5.50;1.00;;;;;;4913565;29;20188;-85
2023/11/18 03:50:16;;;;;;;29.23;18.42;;;5.60;1.00;;;;;;4907744;29;20203;-85
2023/11/18 03:52:41;;;;;;;26.50;17.48;;;5.60;1.00;;;;;;4918708;29;20235;-84
2023/11/18 03:55:08;;;;;;;35.00;19.63;;;5.60;1.00;;;;;;4916377;29;20182;-84
2023/11/18 03:57:34;;;;;;;33.92;18.17;;;5.60;1.00;;;;;;4917606;29;20203;-84
2023/11/18 03:59:59;;;;;;;32.50;19.20;;;5.60;1.00;;;;;;4931571;29;20294;-85
2023/11/18 04:02:25;;;;;;;29.63;19.67;;;5.60;1.00;;;;;;4916181;29;20446;-84
2023/11/18 04:04:51;;;;;;;30.30;18.50;;;5.60;1.00;;;;;;4917840;29;20486;-84
2023/11/18 04:07:17;;;;;;;31.30;19.40;;;5.60;1.00;;;;;;4913978;29;20194;-83
2023/11/18 04:09:43;;;;;;;26.93;17.47;;;5.60;1.00;;;;;;4914017;29;20202;-85
2023/11/18 04:12:10;;;;;;;34.63;20.30;;;5.60;1.00;;;;;;4920328;29;20175;-83
2023/11/18 04:14:36;;;;;;;34.47;20.80;;;5.60;1.00;;;;;;4920993;29;20179;-84
2023/11/18 04:17:02;;;;;;;31.77;19.27;;;5.50;1.00;;;;;;4932675;29;20246;-84
2023/11/18 04:19:28;;;;;;;37.45;19.85;;;5.50;1.00;;;;;;4916197;29;20531;-82
2023/11/18 04:21:53;;;;;;;31.40;18.50;;;5.50;1.00;;;;;;4914699;29;20203;-86
2023/11/18 04:24:19;;;;;;;33.07;20.53;;;5.40;1.00;;;;;;4931217;29;20979;-86
2023/11/18 04:26:45;;;;;;;31.60;19.10;;;5.40;1.00;;;;;;4919035;29;20191;-85
2023/11/18 04:29:10;;;;;;;32.90;19.03;;;5.40;1.00;;;;;;4917824;29;20283;-86
2023/11/18 04:31:37;;;;;;;30.90;18.23;;;5.40;1.00;;;;;;4917832;29;20258;-85
2023/11/18 04:34:04;;;;;;;34.83;20.17;;;5.50;1.00;;;;;;4922179;29;20187;-85
2023/11/18 04:36:31;;;;;;;35.03;19.90;;;5.50;1.00;;;;;;4921289;29;20758;-85
2023/11/18 04:38:56;;;;;;;32.22;20.45;;;5.60;1.00;;;;;;4922220;29;20246;-86
2023/11/18 04:41:23;;;;;;;30.23;19.20;;;5.60;1.00;;;;;;4905533;29;20594;-85
2023/11/18 04:43:48;;;;;;;33.08;19.70;;;5.60;1.00;;;;;;4914681;29;20183;-85
2023/11/18 04:46:14;;;;;;;34.27;18.90;;;5.60;1.00;;;;;;4917132;29;20720;-84
2023/11/18 04:48:39;;;;;;;29.60;16.90;;;5.60;1.00;;;;;;4917268;29;20223;-85
2023/11/18 04:51:05;;;;;;;33.10;17.20;;;5.70;1.00;;;;;;4921364;29;20684;-85
2023/11/18 04:53:31;;;;;;;35.47;19.40;;;5.80;1.00;;;;;;4915724;29;20195;-86
2023/11/18 04:55:58;;;;;;;33.57;18.07;;;5.80;1.00;;;;;;4920817;29;20578;-86
2023/11/18 04:58:23;;;;;;;34.42;18.95;;;5.70;1.00;;;;;;4919975;29;20431;-83
2023/11/18 05:00:50;;;;;;;34.50;19.97;;;5.70;1.00;;;;;;4916681;29;20214;-85
2023/11/18 05:03:16;;;;;;;35.72;18.23;;;5.70;1.00;;;;;;4916409;29;20470;-84
2023/11/18 05:05:42;;;;;;;34.55;18.65;;;5.70;1.00;;;;;;4913683;29;20218;-84
2023/11/18 05:08:18;;;;;;;39.13;19.30;;;5.60;1.00;;;;;;4907131;29;20222;-86
2023/11/18 05:10:49;;;;;;;32.80;19.48;;;5.70;1.00;;;;;;4918804;29;20203;-84
2023/11/18 05:13:16;;;;;;;37.58;19.50;;;5.70;1.00;;;;;;4918816;29;20612;-84
2023/11/18 05:15:45;;;;;;;34.13;18.75;;;5.60;1.00;;;;;;4930124;29;20554;-84
2023/11/18 05:18:14;;;;;;;31.00;18.23;;;5.70;1.00;;;;;;4909386;29;20195;-85
2023/11/18 05:20:41;;;;;;;36.72;19.63;;;5.60;1.00;;;;;;4914956;29;20279;-84
2023/11/18 05:23:09;;;;;;;35.03;18.92;;;5.60;1.00;;;;;;4911855;29;20186;-87
2023/11/18 05:25:43;;;;;;;35.40;16.35;;;5.60;1.00;;;;;;4919143;29;20187;-84
2023/11/18 05:28:08;;;;;;;34.90;19.17;;;5.60;1.00;;;;;;4907017;29;20175;-84
2023/11/18 05:30:35;;;;;;;38.90;19.77;;;5.70;1.00;;;;;;4911932;29;20227;-84
2023/11/18 05:33:04;;;;;;;35.17;18.17;;;5.70;1.00;;;;;;4908660;29;20278;-83
2023/11/18 05:35:31;;;;;;;29.30;17.80;;;5.70;1.00;;;;;;4908174;29;20234;-84
2023/11/18 05:37:57;;;;;;;29.40;16.40;;;5.80;1.00;;;;;;4908517;29;20182;-85
2023/11/18 05:40:22;;;;;;;33.77;17.60;;;5.80;1.00;;;;;;4912985;29;20722;-84
2023/11/18 05:42:51;;;;;;;36.17;17.53;;;5.80;1.00;;;;;;4913857;29;20176;-84
2023/11/18 05:45:27;;;;;;;30.42;17.42;;;5.90;1.00;;;;;;4914989;29;20190;-84
2023/11/18 05:47:57;;;;;;;28.80;16.05;;;5.90;1.00;;;;;;4909795;29;20175;-84
2023/11/18 05:50:26;;;;;;;32.72;17.88;;;5.90;1.00;;;;;;4917964;29;20226;-84
2023/11/18 05:52:53;;;;;;;31.95;17.00;;;5.90;1.00;;;;;;4915878;29;20699;-86
2023/11/18 05:55:19;;;;;;;30.98;16.70;;;5.90;1.00;;;;;;4926619;29;20191;-84
2023/11/18 05:57:44;;;;;;;27.33;16.40;;;5.90;1.00;;;;;;4915880;29;20186;-86
2023/11/18 06:00:15;;;;;;;30.47;15.30;;;6.00;1.00;;;;;;4917001;29;20212;-86
2023/11/18 06:02:42;;;;;;;29.83;16.30;;;6.00;1.00;;;;;;4915551;29;20187;-84
2023/11/18 06:05:08;;;;;;;25.73;15.25;;;6.00;1.00;;;;;;4910935;29;20191;-84
2023/11/18 06:07:34;;;;;;;26.33;15.70;;;6.10;1.00;;;;;;4910182;29;20240;-85
2023/11/18 06:10:01;;;;;;;28.50;14.55;;;6.10;1.00;;;;;;4930131;29;20214;-84
2023/11/18 06:12:27;;;;;;;24.77;13.13;;;6.10;1.00;;;;;;4916328;29;20258;-85
2023/11/18 06:14:52;;;;;;;27.20;14.40;;;6.10;1.00;;;;;;4913488;29;20226;-84
2023/11/18 06:17:18;;;;;;;23.03;13.77;;;6.10;1.00;;;;;;4918032;29;20285;-86
2023/11/18 06:19:44;;;;;;;21.67;13.30;;;6.20;1.00;;;;;;4914712;29;20738;-84
2023/11/18 06:22:10;;;;;;;22.20;13.60;;;6.20;1.00;;;;;;4918448;29;20202;-82
2023/11/18 06:24:36;;;;;;;23.60;14.60;;;6.30;1.00;;;;;;4918923;29;20190;-84
2023/11/18 06:27:01;;;;;;;34.90;13.83;;;6.40;1.00;;;;;;4916006;29;20861;-85
2023/11/18 06:29:29;;;;;;;23.83;12.80;;;6.40;1.00;;;;;;4917457;29;20398;-83
2023/11/18 06:31:54;;;;;;;23.52;13.90;;;6.40;1.00;;;;;;4917905;29;20197;-84
2023/11/18 06:34:20;;;;;;;26.33;13.60;;;6.40;1.00;;;;;;4913882;29;20191;-85
2023/11/18 06:36:46;;;;;;;20.30;13.27;;;6.40;1.00;;;;;;4915837;29;20211;-84
2023/11/18 06:39:13;;;;;;;22.63;13.53;;;6.40;1.00;;;;;;4916744;29;20494;-84
2023/11/18 06:41:48;;;;;;;21.38;12.43;;;6.40;1.00;;;;;;4918507;29;20183;-85
2023/11/18 06:44:17;;;;;;;21.42;13.63;;;6.40;1.00;;;;;;4915877;29;20186;-84
2023/11/18 06:46:44;;;;;;;18.45;11.82;;;6.50;1.00;;;;;;4911952;29;20188;-84
2023/11/18 06:49:16;;;;;;;17.95;12.75;;;6.50;1.00;;;;;;4915237;29;20194;-84
2023/11/18 06:51:42;;;;;;;22.45;12.55;;;6.50;1.00;;;;;;4929162;29;20218;-85
2023/11/18 06:54:13;;;;;;;18.95;12.38;;;6.60;1.00;;;;;;4920220;29;20214;-86
2023/11/18 06:56:42;;;;;;;19.80;12.32;;;6.60;1.00;;;;;;4916722;29;20202;-84
2023/11/18 06:59:12;;;;;;;17.10;11.57;;;6.50;1.00;;;;;;4920295;29;20185;-85
2023/11/18 07:01:40;;;;;;;19.35;12.80;;;6.50;1.00;;;;;;4914405;29;20214;-86
2023/11/18 07:04:08;;;;;;;25.88;12.27;;;6.60;1.00;;;;;;4912194;29;20217;-85
2023/11/18 07:06:37;;;;;;;22.35;12.70;;;6.70;1.00;;;;;;4917456;29;20187;-86
2023/11/18 07:09:20;;;;;;;19.50;11.75;;;6.80;1.00;;;;;;4913754;29;20182;-83
2023/11/18 07:11:47;;;;;;;20.38;13.30;;;6.80;1.00;;;;;;4915711;29;20202;-85
2023/11/18 07:14:14;;;;;;;18.80;11.43;;;6.80;1.00;;;;;;4912466;29;20187;-84
2023/11/18 07:16:40;;;;;;;16.60;11.57;;;6.80;1.00;;;;;;4899605;29;20567;-86
2023/11/18 07:19:06;;;;;;;23.67;12.55;;;6.80;1.00;;;;;;4923426;29;20614;-84
2023/11/18 07:21:33;;;;;;;19.90;11.85;;;6.80;1.00;;;;;;4909866;29;20506;-85
2023/11/18 07:23:59;;;;;;;19.38;12.10;;;6.80;1.00;;;;;;4902418;29;20201;-86
2023/11/18 07:26:24;;;;;;;19.63;12.87;;;6.70;1.00;;;;;;4913584;29;20191;-85
2023/11/18 07:28:51;;;;;;;21.63;13.20;;;6.70;1.00;;;;;;4902417;29;20211;-85
2023/11/18 07:31:18;;;;;;;24.67;13.10;;;6.70;1.00;;;;;;4911886;29;20215;-86
2023/11/18 07:33:48;;;;;;;19.77;13.13;;;6.80;1.00;;;;;;4899758;29;20187;-85
2023/11/18 07:36:15;;;;;;;19.20;12.73;;;6.80;1.00;;;;;;4902951;29;20211;-85
2023/11/18 07:38:41;;;;;;;21.70;14.15;;;6.80;1.00;;;;;;4910467;29;20669;-84
2023/11/18 07:41:08;;;;;;;18.33;13.33;;;6.80;1.00;;;;;;4914688;29;20206;-84
2023/11/18 07:43:36;;;;;;;23.45;13.27;;;6.70;1.00;;;;;;4914864;29;20219;-84
2023/11/18 07:46:03;;;;;;;23.67;13.32;;;6.80;1.00;;;;;;4906172;29;20733;-85
2023/11/18 07:48:31;;;;;;;18.05;13.02;;;6.80;1.00;;;;;;4906820;29;20198;-84
2023/11/18 07:50:57;;;;;;;19.85;12.90;;;6.80;1.00;;;;;;4915081;29;20211;-82
2023/11/18 07:53:22;;;;;;;18.83;11.53;;;6.80;1.00;;;;;;4912092;29;20190;-85
2023/11/18 07:55:50;;;;;;;21.97;12.67;;;6.90;1.00;;;;;;4918602;29;20513;-84
2023/11/18 07:58:18;;;;;;;21.55;13.73;;;6.90;1.00;;;;;;4918128;29;20210;-86
2023/11/18 08:00:46;;;;;;;17.67;11.80;;;7.00;1.00;;;;;;4914323;29;20210;-84
2023/11/18 08:03:12;;;;;;;22.20;13.95;;;7.10;1.00;;;;;;4920442;29;20198;-86
2023/11/18 08:05:43;;;;;;;17.35;12.10;;;7.10;1.00;;;;;;4936600;29;20201;-85
2023/11/18 08:08:10;;;;;;;19.17;13.45;;;7.10;1.00;;;;;;4917271;29;20230;-86
2023/11/18 08:10:40;;;;;;;17.48;11.68;;;7.20;1.00;;;;;;4916357;29;20218;-83
2023/11/18 08:13:14;;;;;;;19.85;12.73;;;7.20;1.00;;;;;;4914298;29;20195;-86
2023/11/18 08:16:04;;;;;;;14.93;11.07;;;7.30;1.00;;;;;;4924025;29;20273;-86
2023/11/18 08:18:31;;;;;;;17.80;9.80;;;7.40;1.00;;;;;;4906604;29;20673;-86
2023/11/18 08:20:59;;;;;;;16.38;9.50;;;7.40;1.00;;;;;;4924529;29;20234;-86
2023/11/18 08:23:27;;;;;;;16.70;10.65;;;7.40;1.00;;;;;;4916023;29;20675;-84
2023/11/18 08:25:59;;;;;;;14.27;10.07;;;7.40;1.00;;;;;;4919573;29;20259;-86
2023/11/18 08:28:25;;;;;;;14.25;9.65;;;7.50;1.00;;;;;;4921628;29;20250;-86
2023/11/18 08:30:52;;;;;;;17.83;9.82;;;7.40;1.00;;;;;;4908960;29;20246;-84
2023/11/18 08:33:24;;;;;;;13.07;9.75;;;7.50;1.00;;;;;;4930572;29;20206;-85
2023/11/18 08:35:49;;;;;;;19.83;9.65;;;7.50;1.00;;;;;;4912460;29;20767;-84
2023/11/18 08:38:15;;;;;;;16.53;9.43;;;7.60;1.00;;;;;;4918264;29;20183;-85
2023/11/18 08:40:48;;;;;;;13.83;8.13;;;7.60;1.00;;;;;;4909456;29;20297;-85
2023/11/18 08:43:15;;;;;;;13.82;9.15;;;7.70;1.00;;;;;;4930425;29;20219;-84
2023/11/18 08:45:41;;;;;;;17.00;10.00;;;7.80;1.00;;;;;;4917615;29;20197;-84
2023/11/18 08:48:07;;;;;;;15.07;9.27;;;7.70;1.00;;;;;;4909457;29;20533;-84
2023/11/18 08:51:01;;;;;;;12.93;8.80;;;7.70;1.00;;;;;;4916230;29;20210;-85
2023/11/18 08:54:10;;;;;;;;;;;;;;;;;;;;;
2023/11/18 08:56:57;;;;;;;12.80;9.20;;;7.70;1.00;;;;;;4920274;29;20215;-84
2023/11/18 08:59:25;;;;;;;18.50;8.23;;;7.70;1.00;;;;;;4916531;29;20214;-84
2023/11/18 09:01:59;;;;;;;11.68;8.23;;;7.70;1.00;;;;;;4929795;29;20191;-86
2023/11/18 09:04:25;;;;;;;13.68;8.38;;;7.80;1.00;;;;;;4919010;29;20277;-84
2023/11/18 09:06:54;;;;;;;12.25;8.05;;;7.90;1.00;;;;;;4915963;29;20186;-86
2023/11/18 09:09:27;;;;;;;9.80;7.65;;;7.90;1.00;;;;;;4915192;29;20212;-86
2023/11/18 09:11:57;;;;;;;14.17;7.40;;;8.00;1.00;;;;;;4908789;29;20178;-85
2023/11/18 09:14:26;;;;;;;12.23;7.40;;;8.10;1.00;;;;;;4918170;29;20438;-85
2023/11/18 09:16:55;;;;;;;13.77;9.23;;;8.10;1.00;;;;;;4916920;29;20478;-84
2023/11/18 09:19:21;;;;;;;15.90;10.70;;;8.20;1.00;;;;;;4918139;29;20838;-84
2023/11/18 09:21:47;;;;;;;23.63;14.80;;;8.20;1.00;;;;;;4907089;29;20474;-85
2023/11/18 09:24:13;;;;;;;12.57;9.03;;;8.40;1.00;;;;;;4919208;29;20416;-86
2023/11/18 09:26:39;;;;;;;14.60;9.10;;;8.40;1.00;;;;;;4912702;29;20455;-85
2023/11/18 09:29:08;;;;;;;18.40;11.20;;;8.40;1.00;;;;;;4912721;29;20439;-85
2023/11/18 09:31:35;;;;;;;26.50;12.90;;;8.40;1.00;;;;;;4911191;29;20488;-85
2023/11/18 09:34:01;;;;;;;10.73;7.90;;;8.50;1.00;;;;;;4911444;29;20470;-85
2023/11/18 09:36:28;;;;;;;13.17;6.90;;;8.50;1.00;;;;;;4912214;29;20471;-86
2023/11/18 09:38:54;;;;;;;16.30;13.00;;;8.60;1.00;;;;;;4906777;29;20179;-84
2023/11/18 09:41:24;;;;;;;21.83;15.43;;;8.50;1.00;;;;;;4924019;29;20438;-86
2023/11/18 09:43:53;;;;;;;13.30;8.80;;;8.60;1.00;;;;;;4908413;29;20183;-86
2023/11/18 09:46:35;;;;;;;12.30;7.03;;;8.70;1.00;;;;;;4918776;29;20485;-86
2023/11/18 09:49:25;;;;;;;8.43;6.53;;;8.80;99.90;;;;;;4910203;29;20475;-84
2023/11/18 09:51:57;;;;;;;16.10;7.87;;;8.70;99.90;;;;;;4912098;29;20453;-83
2023/11/18 09:54:41;;;;;;;12.70;8.80;;;8.70;99.90;;;;;;4921417;29;20447;-84
2023/11/18 09:57:19;;;;;;;12.17;7.00;;;8.80;99.90;;;;;;4909308;29;20526;-83
2023/11/18 10:02:51;;;;;;;9.70;7.93;;;8.70;99.90;;;;;;4912492;29;20478;-84
2023/11/18 10:05:26;;;;;;;13.93;7.47;;;8.80;99.90;;;;;;4914186;29;20451;-85
2023/11/18 10:07:52;;;;;;;12.23;7.53;;;8.90;99.90;;;;;;4922264;29;20481;-85
2023/11/18 10:10:20;;;;;;;10.20;7.10;;;8.90;99.90;;;;;;4905259;29;20926;-84
2023/11/18 10:12:52;;;;;;;11.43;7.27;;;8.90;1.00;;;;;;4919950;29;20434;-86
2023/11/18 10:15:23;;;;;;;26.20;9.07;;;8.90;1.00;;;;;;4915728;29;20869;-85
2023/11/18 10:17:58;;;;;;;13.73;8.03;;;8.90;1.00;;;;;;4907478;29;20447;-83
2023/11/18 10:20:46;;;;;;;17.47;8.73;;;8.90;1.00;;;;;;4903247;29;20887;-85
2023/11/18 10:23:21;;;;;;;13.33;8.47;;;9.00;1.00;;;;;;4906838;29;20440;-83
2023/11/18 10:25:56;;;;;;;13.60;8.60;;;9.00;1.00;;;;;;4913284;29;21250;-84
2023/11/18 10:28:32;;;;;;;12.87;7.37;;;9.10;1.00;;;;;;4901134;29;20529;-84
2023/11/18 10:31:03;;;;;;;14.07;7.50;;;9.10;1.00;;;;;;4910446;29;20594;-84
2023/11/18 10:33:33;;;;;;;10.07;6.60;;;9.10;1.00;;;;;;4916040;29;20451;-84
2023/11/18 10:36:03;;;;;;;10.73;6.63;;;9.10;1.00;;;;;;4910932;29;20489;-83
2023/11/18 10:38:37;;;;;;;10.90;7.03;;;9.10;1.00;;;;;;4922333;29;20989;-84
2023/11/18 10:41:05;;;;;;;13.60;7.80;;;9.00;1.00;;;;;;4907556;29;20497;-86
2023/11/18 10:43:35;;;;;;;13.20;7.97;;;9.00;1.00;;;;;;4916396;29;20431;-83
2023/11/18 10:46:13;;;;;;;11.43;7.90;;;9.00;1.00;;;;;;4908946;29;20451;-83
2023/11/18 10:48:43;;;;;;;13.67;8.33;;;9.00;1.00;;;;;;4908940;29;20466;-84
2023/11/18 10:51:13;;;;;;;12.33;9.37;;;9.10;1.00;;;;;;4905926;29;20463;-84
2023/11/18 10:53:52;;;;;;;13.80;7.80;;;9.20;1.00;;;;;;4904993;29;20514;-85
2023/11/18 10:56:28;;;;;;;12.10;7.00;;;9.20;1.00;;;;;;4913997;29;20992;-84
2023/11/18 10:58:56;;;;;;;13.00;6.50;;;9.30;1.00;;;;;;4907257;29;20517;-83
2023/11/18 11:01:31;;;;;;;13.50;5.67;;;9.40;1.00;;;;;;4904508;29;20448;-83
2023/11/18 11:03:57;;;;;;;11.07;5.27;;;9.50;1.00;;;;;;4901331;29;20514;-84
2023/11/18 11:06:33;;;;;;;9.03;5.50;;;9.60;1.00;;;;;;4913068;29;20498;-84
2023/11/18 11:08:59;;;;;;;9.53;5.40;;;9.70;1.00;;;;;;4916925;29;20281;-84
2023/11/18 11:11:28;;;;;;;14.90;5.63;;;9.70;1.00;;;;;;4905831;29;20478;-83
2023/11/18 11:13:57;;;;;;;7.07;4.07;;;9.80;1.00;;;;;;4907507;29;20447;-85
2023/11/18 11:16:29;;;;;;;6.90;3.70;;;9.90;1.00;;;;;;4904781;29;20844;-83
2023/11/18 11:18:57;;;;;;;5.30;3.07;;;9.90;1.00;;;;;;4914115;29;20466;-83
2023/11/18 11:21:29;;;;;;;9.87;3.53;;;9.90;1.00;;;;;;4914407;29;20434;-84
2023/11/18 11:24:01;;;;;;;5.90;3.40;;;9.90;1.00;;;;;;4899236;29;20451;-85
2023/11/18 11:26:41;;;;;;;6.17;4.10;;;9.80;1.00;;;;;;4905544;29;20518;-84
2023/11/18 11:29:28;;;;;;;7.93;3.90;;;9.80;1.00;;;;;;4912928;29;20529;-85
2023/11/18 11:32:19;;;;;;;5.57;2.50;;;9.80;1.00;;;;;;4914251;29;20486;-83
2023/11/18 11:34:57;;;;;;;10.97;3.93;;;9.80;1.00;;;;;;4907612;29;20470;-83
2023/11/18 11:37:25;;;;;;;4.57;3.00;;;9.80;1.00;;;;;;4917886;29;20542;-84
2023/11/18 11:39:53;;;;;;;6.90;3.20;;;9.80;99.90;;;;;;4909576;29;20809;-84
2023/11/18 11:42:21;;;;;;;8.23;3.70;;;9.80;99.90;;;;;;4900641;29;20447;-83
2023/11/18 11:44:49;;;;;;;5.87;3.73;;;9.90;99.90;;;;;;4916262;29;20486;-83
2023/11/18 11:47:15;;;;;;;8.10;4.80;;;9.90;99.90;;;;;;4905582;29;20479;-81
2023/11/18 11:49:57;;;;;;;7.87;4.23;;;10.00;99.90;;;;;;4901050;29;20633;-85
2023/11/18 11:52:29;;;;;;;6.40;3.70;;;10.00;99.90;;;;;;4915877;29;20427;-85
2023/11/18 11:55:13;;;;;;;7.33;3.90;;;10.00;99.90;;;;;;4908017;29;20443;-84
2023/11/18 11:57:44;;;;;;;8.53;4.83;;;10.10;99.90;;;;;;4920884;29;20482;-85
2023/11/18 12:00:16;;;;;;;5.93;4.10;;;10.10;99.90;;;;;;4921351;29;20998;-84
2023/11/18 12:02:50;;;;;;;7.57;4.87;;;10.00;61.10;;;;;;4907374;29;20488;-84
2023/11/18 12:05:27;;;;;;;7.07;5.10;;;10.00;99.90;;;;;;4913119;29;20418;-85
2023/11/18 12:07:56;;;;;;;6.43;4.40;;;10.00;99.40;;;;;;4915280;29;20445;-84
2023/11/18 12:10:26;;;;;;;6.30;3.43;;;10.00;99.90;;;;;;4917403;29;20498;-84
2023/11/18 12:13:16;;;;;;;9.77;3.03;;;10.00;99.90;;;;;;4910877;29;20421;-84
2023/11/18 12:16:03;;;;;;;20.93;13.00;;;10.00;99.90;;;;;;4914212;29;20868;-84
2023/11/18 12:18:31;;;;;;;12.53;9.07;;;10.00;1.00;;;;;;4905464;29;20477;-83
2023/11/18 12:21:01;;;;;;;14.37;10.23;;;10.00;1.00;;;;;;4908901;29;20542;-85
2023/11/18 12:23:28;;;;;;;9.10;8.27;;;10.00;99.90;;;;;;4907902;29;20475;-83
2023/11/18 12:25:54;;;;;;;9.43;6.63;;;10.00;99.90;;;;;;4915974;29;20442;-82
2023/11/18 12:28:50;;;;;;;6.20;2.30;;;9.90;99.90;;;;;;4904892;29;21151;-84
2023/11/18 12:31:41;;;;;;;7.00;5.73;;;9.90;99.90;;;;;;4901064;29;20526;-84
2023/11/18 12:34:10;;;;;;;7.80;6.13;;;9.80;99.90;;;;;;4916736;29;20901;-82
2023/11/18 12:37:07;;;;;;;7.90;7.10;;;9.70;99.90;;;;;;4902187;29;20466;-86
2023/11/18 12:40:03;;;;;;;7.17;6.53;;;9.60;1.00;;;;;;4923986;29;20463;-83
2023/11/18 12:42:58;;;;;;;9.93;3.23;;;9.40;1.00;;;;;;4916498;29;20451;-86
2023/11/18 12:46:14;;;;;;;4.90;2.57;;;9.40;1.00;;;;;;4912343;29;20879;-85
2023/11/18 12:48:48;;;;;;;4.80;2.70;;;9.30;1.00;;;;;;4906003;29;20503;-83
2023/11/18 12:51:19;;;;;;;7.83;3.40;;;9.20;1.00;;;;;;4915892;29;20482;-83
2023/11/18 12:53:48;;;;;;;20.20;9.60;;;9.10;1.00;;;;;;4920946;29;20451;-83
2023/11/18 12:56:16;;;;;;;13.10;4.67;;;9.10;1.00;;;;;;4919675;29;20471;-84
2023/11/18 12:58:43;;;;;;;13.83;5.30;;;9.00;1.00;;;;;;4907898;29;20455;-84
2023/11/18 13:01:14;;;;;;;12.50;6.13;;;8.90;1.00;;;;;;4908045;29;20481;-83
2023/11/18 13:03:41;;;;;;;25.83;14.07;;;8.90;1.00;;;;;;4908592;29;20447;-86
2023/11/18 13:06:14;;;;;;;33.43;19.57;;;8.90;1.00;;;;;;4920548;29;20447;-85